sensor_id;sensor_type;location;lat;lon;timestamp;temperature;humidity
1381;DHT22;684;48.342;10.096;2023-05-07T00:01:35;15.70;28.20
1381;DHT22;684;48.342;10.096;2023-05-07T00:04:04;15.70;28.50
1381;DHT22;684;48.342;10.096;2023-05-07T00:06:31;15.70;28.40
1381;DHT22;684;48.342;10.096;2023-05-07T00:08:58;15.70;28.50
1381;DHT22;684;48.342;10.096;2023-05-07T00:11:26;15.70;28.50
1381;DHT22;684;48.342;10.096;2023-05-07T00:13:53;15.60;28.50
1381;DHT22;684;48.342;10.096;2023-05-07T00:16:20;15.60;28.50
1381;DHT22;684;48.342;10.096;2023-05-07T00:18:47;15.60;28.70
1381;DHT22;684;48.342;10.096;2023-05-07T00:21:15;15.50;29.00
1381;DHT22;684;48.342;10.096;2023-05-07T00:23:42;15.50;28.90
1381;DHT22;684;48.342;10.096;2023-05-07T00:26:09;15.50;29.00
1381;DHT22;684;48.342;10.096;2023-05-07T00:28:35;15.50;29.20
1381;DHT22;684;48.342;10.096;2023-05-07T00:31:02;15.40;29.10
1381;DHT22;684;48.342;10.096;2023-05-07T00:33:29;15.40;29.10
1381;DHT22;684;48.342;10.096;2023-05-07T00:35:56;15.40;29.20
1381;DHT22;684;48.342;10.096;2023-05-07T00:38:24;15.30;29.30
1381;DHT22;684;48.342;10.096;2023-05-07T00:40:50;15.30;29.40
1381;DHT22;684;48.342;10.096;2023-05-07T00:43:17;15.30;29.60
1381;DHT22;684;48.342;10.096;2023-05-07T00:45:44;15.20;29.80
1381;DHT22;684;48.342;10.096;2023-05-07T00:48:11;15.20;29.80
1381;DHT22;684;48.342;10.096;2023-05-07T00:50:37;15.20;29.90
1381;DHT22;684;48.342;10.096;2023-05-07T00:53:04;15.20;29.90
1381;DHT22;684;48.342;10.096;2023-05-07T00:55:35;15.10;29.80
1381;DHT22;684;48.342;10.096;2023-05-07T00:58:02;15.10;29.80
1381;DHT22;684;48.342;10.096;2023-05-07T01:00:29;15.10;30.00
1381;DHT22;684;48.342;10.096;2023-05-07T01:02:56;15.10;30.10
1381;DHT22;684;48.342;10.096;2023-05-07T01:05:23;15.00;30.30
1381;DHT22;684;48.342;10.096;2023-05-07T01:07:52;15.00;30.30
1381;DHT22;684;48.342;10.096;2023-05-07T01:10:19;15.00;30.40
1381;DHT22;684;48.342;10.096;2023-05-07T01:12:48;15.00;30.60
1381;DHT22;684;48.342;10.096;2023-05-07T01:15:16;14.90;30.70
1381;DHT22;684;48.342;10.096;2023-05-07T01:17:44;14.90;30.60
1381;DHT22;684;48.342;10.096;2023-05-07T01:20:11;14.90;31.00
1381;DHT22;684;48.342;10.096;2023-05-07T01:22:40;14.90;30.90
1381;DHT22;684;48.342;10.096;2023-05-07T01:25:08;14.80;30.90
1381;DHT22;684;48.342;10.096;2023-05-07T01:27:35;14.80;30.90
1381;DHT22;684;48.342;10.096;2023-05-07T01:30:02;14.80;31.00
1381;DHT22;684;48.342;10.096;2023-05-07T01:32:33;14.80;31.20
1381;DHT22;684;48.342;10.096;2023-05-07T01:35:02;14.80;31.20
1381;DHT22;684;48.342;10.096;2023-05-07T01:37:31;14.80;31.30
1381;DHT22;684;48.342;10.096;2023-05-07T01:40:01;14.80;31.50
1381;DHT22;684;48.342;10.096;2023-05-07T01:42:28;14.80;31.50
1381;DHT22;684;48.342;10.096;2023-05-07T01:44:55;14.70;31.60
1381;DHT22;684;48.342;10.096;2023-05-07T01:47:23;14.70;31.50
1381;DHT22;684;48.342;10.096;2023-05-07T01:49:50;14.70;31.80
1381;DHT22;684;48.342;10.096;2023-05-07T01:52:17;14.70;31.70
1381;DHT22;684;48.342;10.096;2023-05-07T01:54:43;14.70;31.50
1381;DHT22;684;48.342;10.096;2023-05-07T01:57:11;14.70;31.40
1381;DHT22;684;48.342;10.096;2023-05-07T01:59:38;14.70;31.20
1381;DHT22;684;48.342;10.096;2023-05-07T02:02:05;14.70;31.10
1381;DHT22;684;48.342;10.096;2023-05-07T02:04:32;14.60;30.90
1381;DHT22;684;48.342;10.096;2023-05-07T02:06:58;14.60;30.80
1381;DHT22;684;48.342;10.096;2023-05-07T02:09:25;14.60;30.80
1381;DHT22;684;48.342;10.096;2023-05-07T02:11:52;14.60;30.80
1381;DHT22;684;48.342;10.096;2023-05-07T02:14:20;14.60;30.80
1381;DHT22;684;48.342;10.096;2023-05-07T02:16:46;14.60;30.90
1381;DHT22;684;48.342;10.096;2023-05-07T02:19:13;14.60;30.90
1381;DHT22;684;48.342;10.096;2023-05-07T02:21:40;14.60;30.80
1381;DHT22;684;48.342;10.096;2023-05-07T02:24:07;14.60;30.60
1381;DHT22;684;48.342;10.096;2023-05-07T02:26:33;14.50;30.70
1381;DHT22;684;48.342;10.096;2023-05-07T02:29:00;14.50;30.60
1381;DHT22;684;48.342;10.096;2023-05-07T02:31:28;14.50;30.80
1381;DHT22;684;48.342;10.096;2023-05-07T02:33:55;14.40;30.90
1381;DHT22;684;48.342;10.096;2023-05-07T02:36:22;14.30;31.40
1381;DHT22;684;48.342;10.096;2023-05-07T02:38:48;14.30;31.50
1381;DHT22;684;48.342;10.096;2023-05-07T02:41:15;14.30;31.60
1381;DHT22;684;48.342;10.096;2023-05-07T02:43:42;14.20;31.70
1381;DHT22;684;48.342;10.096;2023-05-07T02:46:09;14.20;31.80
1381;DHT22;684;48.342;10.096;2023-05-07T02:48:37;14.20;31.90
1381;DHT22;684;48.342;10.096;2023-05-07T02:51:04;14.10;32.20
1381;DHT22;684;48.342;10.096;2023-05-07T02:53:31;14.20;32.10
1381;DHT22;684;48.342;10.096;2023-05-07T02:56:00;14.10;32.40
1381;DHT22;684;48.342;10.096;2023-05-07T02:58:27;14.00;32.50
1381;DHT22;684;48.342;10.096;2023-05-07T03:00:54;14.00;32.80
1381;DHT22;684;48.342;10.096;2023-05-07T03:03:21;14.00;32.70
1381;DHT22;684;48.342;10.096;2023-05-07T03:05:49;14.00;32.60
1381;DHT22;684;48.342;10.096;2023-05-07T03:08:16;14.00;32.60
1381;DHT22;684;48.342;10.096;2023-05-07T03:10:42;14.00;32.60
1381;DHT22;684;48.342;10.096;2023-05-07T03:13:09;14.00;32.60
1381;DHT22;684;48.342;10.096;2023-05-07T03:15:36;14.00;32.70
1381;DHT22;684;48.342;10.096;2023-05-07T03:18:03;14.00;32.80
1381;DHT22;684;48.342;10.096;2023-05-07T03:20:29;13.90;32.80
1381;DHT22;684;48.342;10.096;2023-05-07T03:22:57;13.90;32.60
1381;DHT22;684;48.342;10.096;2023-05-07T03:25:24;13.90;32.70
1381;DHT22;684;48.342;10.096;2023-05-07T03:27:51;13.90;32.80
1381;DHT22;684;48.342;10.096;2023-05-07T03:30:18;13.90;33.00
1381;DHT22;684;48.342;10.096;2023-05-07T03:32:45;13.80;32.90
1381;DHT22;684;48.342;10.096;2023-05-07T03:35:12;13.80;33.00
1381;DHT22;684;48.342;10.096;2023-05-07T03:37:39;13.80;33.10
1381;DHT22;684;48.342;10.096;2023-05-07T03:40:08;13.70;33.30
1381;DHT22;684;48.342;10.096;2023-05-07T03:42:35;13.60;33.80
1381;DHT22;684;48.342;10.096;2023-05-07T03:45:02;13.60;33.80
1381;DHT22;684;48.342;10.096;2023-05-07T03:47:29;13.60;33.90
1381;DHT22;684;48.342;10.096;2023-05-07T03:49:56;13.50;34.00
1381;DHT22;684;48.342;10.096;2023-05-07T03:52:23;13.50;34.30
1381;DHT22;684;48.342;10.096;2023-05-07T03:54:51;13.50;34.50
1381;DHT22;684;48.342;10.096;2023-05-07T03:57:19;13.50;34.40
1381;DHT22;684;48.342;10.096;2023-05-07T03:59:46;13.50;34.60
1381;DHT22;684;48.342;10.096;2023-05-07T04:02:13;13.40;34.50
1381;DHT22;684;48.342;10.096;2023-05-07T04:04:39;13.40;34.60
1381;DHT22;684;48.342;10.096;2023-05-07T04:07:06;13.40;34.60
1381;DHT22;684;48.342;10.096;2023-05-07T04:09:33;13.40;34.80
1381;DHT22;684;48.342;10.096;2023-05-07T04:11:59;13.50;34.80
1381;DHT22;684;48.342;10.096;2023-05-07T04:14:28;13.50;34.80
1381;DHT22;684;48.342;10.096;2023-05-07T04:16:55;13.50;34.80
1381;DHT22;684;48.342;10.096;2023-05-07T04:19:22;13.50;34.70
1381;DHT22;684;48.342;10.096;2023-05-07T04:21:49;13.50;34.80
1381;DHT22;684;48.342;10.096;2023-05-07T04:24:16;13.50;34.60
1381;DHT22;684;48.342;10.096;2023-05-07T04:26:42;13.60;34.50
1381;DHT22;684;48.342;10.096;2023-05-07T04:29:09;13.60;34.40
1381;DHT22;684;48.342;10.096;2023-05-07T04:31:38;13.70;34.50
1381;DHT22;684;48.342;10.096;2023-05-07T04:34:05;13.70;34.50
1381;DHT22;684;48.342;10.096;2023-05-07T04:36:32;13.80;34.20
1381;DHT22;684;48.342;10.096;2023-05-07T04:38:59;13.90;34.10
1381;DHT22;684;48.342;10.096;2023-05-07T04:41:26;14.00;33.90
1381;DHT22;684;48.342;10.096;2023-05-07T04:43:53;14.10;33.60
1381;DHT22;684;48.342;10.096;2023-05-07T04:46:20;14.20;33.30
1381;DHT22;684;48.342;10.096;2023-05-07T04:48:48;14.20;33.10
1381;DHT22;684;48.342;10.096;2023-05-07T04:51:14;14.30;32.90
1381;DHT22;684;48.342;10.096;2023-05-07T04:53:41;14.30;32.60
1381;DHT22;684;48.342;10.096;2023-05-07T04:56:08;14.30;32.40
1381;DHT22;684;48.342;10.096;2023-05-07T04:58:35;14.40;32.10
1381;DHT22;684;48.342;10.096;2023-05-07T05:01:02;14.70;31.70
1381;DHT22;684;48.342;10.096;2023-05-07T05:03:28;15.10;30.80
1381;DHT22;684;48.342;10.096;2023-05-07T05:05:56;16.00;29.20
1381;DHT22;684;48.342;10.096;2023-05-07T05:08:24;17.30;24.40
1381;DHT22;684;48.342;10.096;2023-05-07T05:10:51;18.70;20.10
1381;DHT22;684;48.342;10.096;2023-05-07T05:13:18;19.80;17.30
1381;DHT22;684;48.342;10.096;2023-05-07T05:15:45;20.90;14.60
1381;DHT22;684;48.342;10.096;2023-05-07T05:18:12;21.80;12.30
1381;DHT22;684;48.342;10.096;2023-05-07T05:20:39;22.80;10.50
1381;DHT22;684;48.342;10.096;2023-05-07T05:23:07;23.90;8.60
1381;DHT22;684;48.342;10.096;2023-05-07T05:25:34;25.00;6.60
1381;DHT22;684;48.342;10.096;2023-05-07T05:28:01;26.10;4.40
1381;DHT22;684;48.342;10.096;2023-05-07T05:30:28;27.10;2.60
1381;DHT22;684;48.342;10.096;2023-05-07T05:32:54;27.70;1.00
1381;DHT22;684;48.342;10.096;2023-05-07T05:35:21;28.50;1.00
1381;DHT22;684;48.342;10.096;2023-05-07T05:37:48;28.80;1.00
1381;DHT22;684;48.342;10.096;2023-05-07T05:40:16;29.40;1.00
1381;DHT22;684;48.342;10.096;2023-05-07T05:42:42;30.50;1.00
1381;DHT22;684;48.342;10.096;2023-05-07T05:45:09;31.50;1.00
1381;DHT22;684;48.342;10.096;2023-05-07T05:47:37;32.20;1.00
1381;DHT22;684;48.342;10.096;2023-05-07T05:50:05;33.00;1.00
1381;DHT22;684;48.342;10.096;2023-05-07T05:52:32;33.60;1.00
1381;DHT22;684;48.342;10.096;2023-05-07T05:54:59;34.30;1.00
1381;DHT22;684;48.342;10.096;2023-05-07T05:57:27;34.80;1.00
1381;DHT22;684;48.342;10.096;2023-05-07T05:59:54;35.10;1.00
1381;DHT22;684;48.342;10.096;2023-05-07T06:02:20;35.40;1.00
1381;DHT22;684;48.342;10.096;2023-05-07T06:04:47;35.40;1.00
1381;DHT22;684;48.342;10.096;2023-05-07T06:07:14;35.50;1.00
1381;DHT22;684;48.342;10.096;2023-05-07T06:09:40;35.70;1.00
1381;DHT22;684;48.342;10.096;2023-05-07T06:12:07;36.50;1.00
1381;DHT22;684;48.342;10.096;2023-05-07T06:14:35;37.40;1.00
1381;DHT22;684;48.342;10.096;2023-05-07T06:17:02;38.30;1.00
1381;DHT22;684;48.342;10.096;2023-05-07T06:19:29;39.00;1.00
1381;DHT22;684;48.342;10.096;2023-05-07T06:21:56;39.50;1.00
1381;DHT22;684;48.342;10.096;2023-05-07T06:24:23;40.20;1.00
1381;DHT22;684;48.342;10.096;2023-05-07T06:26:50;40.60;1.00
1381;DHT22;684;48.342;10.096;2023-05-07T06:29:17;40.90;1.00
1381;DHT22;684;48.342;10.096;2023-05-07T06:31:45;41.40;1.00
1381;DHT22;684;48.342;10.096;2023-05-07T06:34:11;41.80;1.00
1381;DHT22;684;48.342;10.096;2023-05-07T06:36:39;42.30;1.00
1381;DHT22;684;48.342;10.096;2023-05-07T06:39:06;42.30;1.00
1381;DHT22;684;48.342;10.096;2023-05-07T06:41:33;42.20;1.00
1381;DHT22;684;48.342;10.096;2023-05-07T06:44:00;42.70;1.00
1381;DHT22;684;48.342;10.096;2023-05-07T06:46:27;43.40;1.00
1381;DHT22;684;48.342;10.096;2023-05-07T06:48:56;43.70;1.00
1381;DHT22;684;48.342;10.096;2023-05-07T06:51:23;43.90;1.00
1381;DHT22;684;48.342;10.096;2023-05-07T06:53:49;44.20;1.00
1381;DHT22;684;48.342;10.096;2023-05-07T06:56:16;44.30;1.00
1381;DHT22;684;48.342;10.096;2023-05-07T06:58:43;44.50;1.00
1381;DHT22;684;48.342;10.096;2023-05-07T07:01:10;44.30;1.00
1381;DHT22;684;48.342;10.096;2023-05-07T07:03:36;44.20;1.00
1381;DHT22;684;48.342;10.096;2023-05-07T07:06:05;44.30;1.00
1381;DHT22;684;48.342;10.096;2023-05-07T07:08:31;44.70;1.00
1381;DHT22;684;48.342;10.096;2023-05-07T07:10:58;45.10;1.00
1381;DHT22;684;48.342;10.096;2023-05-07T07:13:25;45.50;1.00
1381;DHT22;684;48.342;10.096;2023-05-07T07:15:52;45.60;1.00
1381;DHT22;684;48.342;10.096;2023-05-07T07:18:19;44.80;1.00
1381;DHT22;684;48.342;10.096;2023-05-07T07:20:45;43.60;1.00
1381;DHT22;684;48.342;10.096;2023-05-07T07:23:13;43.50;1.00
1381;DHT22;684;48.342;10.096;2023-05-07T07:25:40;44.10;1.00
1381;DHT22;684;48.342;10.096;2023-05-07T07:28:07;45.00;1.00
1381;DHT22;684;48.342;10.096;2023-05-07T07:30:34;45.50;1.00
1381;DHT22;684;48.342;10.096;2023-05-07T07:33:00;45.60;1.00
1381;DHT22;684;48.342;10.096;2023-05-07T07:35:28;45.70;1.00
1381;DHT22;684;48.342;10.096;2023-05-07T07:37:55;45.50;1.00
1381;DHT22;684;48.342;10.096;2023-05-07T07:40:23;45.00;1.00
1381;DHT22;684;48.342;10.096;2023-05-07T07:42:50;44.90;1.00
1381;DHT22;684;48.342;10.096;2023-05-07T07:45:17;44.30;1.00
1381;DHT22;684;48.342;10.096;2023-05-07T07:47:43;43.30;1.00
1381;DHT22;684;48.342;10.096;2023-05-07T07:50:10;42.00;1.00
1381;DHT22;684;48.342;10.096;2023-05-07T07:52:37;40.50;1.00
1381;DHT22;684;48.342;10.096;2023-05-07T07:55:05;39.80;1.00
1381;DHT22;684;48.342;10.096;2023-05-07T07:57:33;40.50;1.00
1381;DHT22;684;48.342;10.096;2023-05-07T08:00:00;41.10;1.00
1381;DHT22;684;48.342;10.096;2023-05-07T08:02:27;41.80;1.00
1381;DHT22;684;48.342;10.096;2023-05-07T08:04:54;41.80;1.00
1381;DHT22;684;48.342;10.096;2023-05-07T08:07:20;41.70;1.00
1381;DHT22;684;48.342;10.096;2023-05-07T08:09:48;41.90;1.00
1381;DHT22;684;48.342;10.096;2023-05-07T08:12:15;41.90;1.00
1381;DHT22;684;48.342;10.096;2023-05-07T08:14:43;42.20;1.00
1381;DHT22;684;48.342;10.096;2023-05-07T08:17:10;42.40;1.00
1381;DHT22;684;48.342;10.096;2023-05-07T08:19:36;42.60;1.00
1381;DHT22;684;48.342;10.096;2023-05-07T08:22:03;42.90;1.00
1381;DHT22;684;48.342;10.096;2023-05-07T08:24:31;43.80;1.00
1381;DHT22;684;48.342;10.096;2023-05-07T08:26:57;44.20;1.00
1381;DHT22;684;48.342;10.096;2023-05-07T08:29:24;43.80;1.00
1381;DHT22;684;48.342;10.096;2023-05-07T08:31:52;43.40;1.00
1381;DHT22;684;48.342;10.096;2023-05-07T08:34:21;42.90;1.00
1381;DHT22;684;48.342;10.096;2023-05-07T08:36:48;41.90;1.00
1381;DHT22;684;48.342;10.096;2023-05-07T08:39:15;41.80;1.00
1381;DHT22;684;48.342;10.096;2023-05-07T08:41:44;42.20;1.00
1381;DHT22;684;48.342;10.096;2023-05-07T08:44:13;42.50;1.00
1381;DHT22;684;48.342;10.096;2023-05-07T08:46:41;43.00;1.00
1381;DHT22;684;48.342;10.096;2023-05-07T08:49:10;43.60;1.00
1381;DHT22;684;48.342;10.096;2023-05-07T08:51:36;44.20;1.00
1381;DHT22;684;48.342;10.096;2023-05-07T08:54:04;44.20;1.00
1381;DHT22;684;48.342;10.096;2023-05-07T08:56:32;43.70;1.00
1381;DHT22;684;48.342;10.096;2023-05-07T08:58:59;42.80;1.00
1381;DHT22;684;48.342;10.096;2023-05-07T09:01:26;42.30;1.00
1381;DHT22;684;48.342;10.096;2023-05-07T09:03:53;42.10;1.00
1381;DHT22;684;48.342;10.096;2023-05-07T09:06:21;41.50;1.00
1381;DHT22;684;48.342;10.096;2023-05-07T09:08:51;41.70;1.00
1381;DHT22;684;48.342;10.096;2023-05-07T09:11:20;42.00;1.00
1381;DHT22;684;48.342;10.096;2023-05-07T09:13:48;42.40;1.00
1381;DHT22;684;48.342;10.096;2023-05-07T09:16:15;42.70;1.00
1381;DHT22;684;48.342;10.096;2023-05-07T09:18:43;42.90;1.00
1381;DHT22;684;48.342;10.096;2023-05-07T09:21:10;42.60;1.00
1381;DHT22;684;48.342;10.096;2023-05-07T09:23:39;43.00;1.00
1381;DHT22;684;48.342;10.096;2023-05-07T09:26:06;43.30;1.00
1381;DHT22;684;48.342;10.096;2023-05-07T09:28:38;43.00;1.00
1381;DHT22;684;48.342;10.096;2023-05-07T09:31:05;43.00;1.00
1381;DHT22;684;48.342;10.096;2023-05-07T09:33:32;42.00;1.00
1381;DHT22;684;48.342;10.096;2023-05-07T09:36:02;40.50;1.00
1381;DHT22;684;48.342;10.096;2023-05-07T09:38:29;39.40;1.00
1381;DHT22;684;48.342;10.096;2023-05-07T09:41:05;39.10;1.00
1381;DHT22;684;48.342;10.096;2023-05-07T09:43:33;38.40;1.00
1381;DHT22;684;48.342;10.096;2023-05-07T09:46:02;38.60;1.00
1381;DHT22;684;48.342;10.096;2023-05-07T09:48:30;38.80;1.00
1381;DHT22;684;48.342;10.096;2023-05-07T09:51:02;39.00;1.00
1381;DHT22;684;48.342;10.096;2023-05-07T09:53:30;40.20;1.00
1381;DHT22;684;48.342;10.096;2023-05-07T09:56:00;40.70;1.00
1381;DHT22;684;48.342;10.096;2023-05-07T09:58:28;40.80;1.00
1381;DHT22;684;48.342;10.096;2023-05-07T10:00:56;41.20;1.00
1381;DHT22;684;48.342;10.096;2023-05-07T10:03:24;41.60;1.00
1381;DHT22;684;48.342;10.096;2023-05-07T10:05:54;41.40;1.00
1381;DHT22;684;48.342;10.096;2023-05-07T10:08:20;40.20;1.00
1381;DHT22;684;48.342;10.096;2023-05-07T10:10:49;39.10;1.00
1381;DHT22;684;48.342;10.096;2023-05-07T10:13:16;38.20;1.00
1381;DHT22;684;48.342;10.096;2023-05-07T10:15:45;36.70;1.00
1381;DHT22;684;48.342;10.096;2023-05-07T10:18:12;35.90;1.00
1381;DHT22;684;48.342;10.096;2023-05-07T10:20:41;35.00;1.00
1381;DHT22;684;48.342;10.096;2023-05-07T10:23:13;34.00;1.00
1381;DHT22;684;48.342;10.096;2023-05-07T10:25:41;33.20;1.00
1381;DHT22;684;48.342;10.096;2023-05-07T10:28:10;32.20;1.00
1381;DHT22;684;48.342;10.096;2023-05-07T10:30:48;31.60;1.00
1381;DHT22;684;48.342;10.096;2023-05-07T10:33:22;31.10;1.00
1381;DHT22;684;48.342;10.096;2023-05-07T10:35:50;30.80;1.00
1381;DHT22;684;48.342;10.096;2023-05-07T10:38:17;30.50;1.00
1381;DHT22;684;48.342;10.096;2023-05-07T10:40:44;30.30;1.00
1381;DHT22;684;48.342;10.096;2023-05-07T10:43:11;30.10;1.00
1381;DHT22;684;48.342;10.096;2023-05-07T10:45:38;29.80;1.00
1381;DHT22;684;48.342;10.096;2023-05-07T10:48:11;29.50;1.00
1381;DHT22;684;48.342;10.096;2023-05-07T10:50:39;29.40;1.00
1381;DHT22;684;48.342;10.096;2023-05-07T10:53:21;29.40;1.00
1381;DHT22;684;48.342;10.096;2023-05-07T10:55:51;29.30;1.00
1381;DHT22;684;48.342;10.096;2023-05-07T10:58:24;29.20;1.00
1381;DHT22;684;48.342;10.096;2023-05-07T11:00:56;29.10;1.00
1381;DHT22;684;48.342;10.096;2023-05-07T11:03:25;28.80;1.00
1381;DHT22;684;48.342;10.096;2023-05-07T11:06:09;28.60;1.00
1381;DHT22;684;48.342;10.096;2023-05-07T11:08:52;28.40;1.00
1381;DHT22;684;48.342;10.096;2023-05-07T11:11:20;28.20;1.00
1381;DHT22;684;48.342;10.096;2023-05-07T11:13:47;28.20;1.00
1381;DHT22;684;48.342;10.096;2023-05-07T11:16:17;28.10;1.00
1381;DHT22;684;48.342;10.096;2023-05-07T11:18:50;28.10;1.00
1381;DHT22;684;48.342;10.096;2023-05-07T11:21:34;28.30;1.00
1381;DHT22;684;48.342;10.096;2023-05-07T11:24:02;28.00;1.00
1381;DHT22;684;48.342;10.096;2023-05-07T11:26:30;27.80;1.00
1381;DHT22;684;48.342;10.096;2023-05-07T11:28:57;27.80;1.00
1381;DHT22;684;48.342;10.096;2023-05-07T11:31:27;27.90;1.00
1381;DHT22;684;48.342;10.096;2023-05-07T11:33:57;27.50;1.00
1381;DHT22;684;48.342;10.096;2023-05-07T11:36:24;27.40;1.00
1381;DHT22;684;48.342;10.096;2023-05-07T11:38:51;27.50;1.00
1381;DHT22;684;48.342;10.096;2023-05-07T11:41:18;27.50;1.00
1381;DHT22;684;48.342;10.096;2023-05-07T11:43:57;27.40;1.00
1381;DHT22;684;48.342;10.096;2023-05-07T11:46:24;27.30;1.00
1381;DHT22;684;48.342;10.096;2023-05-07T11:48:50;27.20;1.40
1381;DHT22;684;48.342;10.096;2023-05-07T11:51:23;27.10;1.40
1381;DHT22;684;48.342;10.096;2023-05-07T11:53:51;27.10;1.50
1381;DHT22;684;48.342;10.096;2023-05-07T11:56:18;27.20;2.30
1381;DHT22;684;48.342;10.096;2023-05-07T11:58:47;27.20;2.10
1381;DHT22;684;48.342;10.096;2023-05-07T12:01:14;27.30;1.10
1381;DHT22;684;48.342;10.096;2023-05-07T12:03:43;27.50;1.00
1381;DHT22;684;48.342;10.096;2023-05-07T12:06:11;27.30;1.00
1381;DHT22;684;48.342;10.096;2023-05-07T12:08:40;27.10;1.00
1381;DHT22;684;48.342;10.096;2023-05-07T12:11:08;27.10;1.70
1381;DHT22;684;48.342;10.096;2023-05-07T12:13:36;27.20;1.10
1381;DHT22;684;48.342;10.096;2023-05-07T12:16:05;27.20;1.00
1381;DHT22;684;48.342;10.096;2023-05-07T12:18:33;27.30;1.00
1381;DHT22;684;48.342;10.096;2023-05-07T12:21:00;27.30;1.00
1381;DHT22;684;48.342;10.096;2023-05-07T12:23:28;27.00;1.00
1381;DHT22;684;48.342;10.096;2023-05-07T12:25:56;26.70;1.00
1381;DHT22;684;48.342;10.096;2023-05-07T12:28:23;26.80;1.00
1381;DHT22;684;48.342;10.096;2023-05-07T12:30:50;26.90;1.00
1381;DHT22;684;48.342;10.096;2023-05-07T12:33:18;26.80;1.00
1381;DHT22;684;48.342;10.096;2023-05-07T12:35:47;26.60;1.00
1381;DHT22;684;48.342;10.096;2023-05-07T12:38:15;26.40;1.00
1381;DHT22;684;48.342;10.096;2023-05-07T12:40:44;26.50;1.20
1381;DHT22;684;48.342;10.096;2023-05-07T12:43:16;26.50;1.00
1381;DHT22;684;48.342;10.096;2023-05-07T12:45:44;26.50;1.00
1381;DHT22;684;48.342;10.096;2023-05-07T12:48:11;26.70;1.50
1381;DHT22;684;48.342;10.096;2023-05-07T12:50:38;26.80;1.00
1381;DHT22;684;48.342;10.096;2023-05-07T12:53:06;26.80;1.00
1381;DHT22;684;48.342;10.096;2023-05-07T12:55:40;26.80;1.00
1381;DHT22;684;48.342;10.096;2023-05-07T12:58:07;26.90;1.00
1381;DHT22;684;48.342;10.096;2023-05-07T13:00:37;27.10;1.20
1381;DHT22;684;48.342;10.096;2023-05-07T13:03:04;27.20;1.00
1381;DHT22;684;48.342;10.096;2023-05-07T13:05:31;27.20;1.10
1381;DHT22;684;48.342;10.096;2023-05-07T13:07:58;27.20;1.00
1381;DHT22;684;48.342;10.096;2023-05-07T13:10:26;27.10;1.00
1381;DHT22;684;48.342;10.096;2023-05-07T13:12:53;26.80;1.00
1381;DHT22;684;48.342;10.096;2023-05-07T13:15:23;26.80;1.00
1381;DHT22;684;48.342;10.096;2023-05-07T13:17:51;26.70;1.00
1381;DHT22;684;48.342;10.096;2023-05-07T13:20:17;26.70;1.00
1381;DHT22;684;48.342;10.096;2023-05-07T13:22:44;26.60;1.00
1381;DHT22;684;48.342;10.096;2023-05-07T13:25:11;26.40;1.00
1381;DHT22;684;48.342;10.096;2023-05-07T13:27:38;26.20;1.00
1381;DHT22;684;48.342;10.096;2023-05-07T13:30:06;26.30;1.60
1381;DHT22;684;48.342;10.096;2023-05-07T13:32:32;26.40;1.70
1381;DHT22;684;48.342;10.096;2023-05-07T13:35:01;26.50;1.80
1381;DHT22;684;48.342;10.096;2023-05-07T13:37:27;26.60;1.10
1381;DHT22;684;48.342;10.096;2023-05-07T13:39:54;26.50;1.00
1381;DHT22;684;48.342;10.096;2023-05-07T13:42:21;26.30;1.00
1381;DHT22;684;48.342;10.096;2023-05-07T13:44:48;26.30;1.20
1381;DHT22;684;48.342;10.096;2023-05-07T13:47:14;26.20;1.70
1381;DHT22;684;48.342;10.096;2023-05-07T13:49:41;26.30;1.60
1381;DHT22;684;48.342;10.096;2023-05-07T13:52:09;26.50;1.20
1381;DHT22;684;48.342;10.096;2023-05-07T13:54:36;26.50;1.00
1381;DHT22;684;48.342;10.096;2023-05-07T13:57:03;26.50;1.00
1381;DHT22;684;48.342;10.096;2023-05-07T13:59:30;26.50;1.00
1381;DHT22;684;48.342;10.096;2023-05-07T14:01:56;26.50;1.00
1381;DHT22;684;48.342;10.096;2023-05-07T14:04:23;26.50;1.00
1381;DHT22;684;48.342;10.096;2023-05-07T14:06:50;26.50;1.70
1381;DHT22;684;48.342;10.096;2023-05-07T14:09:18;26.50;1.50
1381;DHT22;684;48.342;10.096;2023-05-07T14:11:45;26.50;1.30
1381;DHT22;684;48.342;10.096;2023-05-07T14:14:13;26.30;1.30
1381;DHT22;684;48.342;10.096;2023-05-07T14:16:39;26.30;1.60
1381;DHT22;684;48.342;10.096;2023-05-07T14:19:06;26.10;1.20
1381;DHT22;684;48.342;10.096;2023-05-07T14:21:33;25.90;1.10
1381;DHT22;684;48.342;10.096;2023-05-07T14:23:59;25.80;1.40
1381;DHT22;684;48.342;10.096;2023-05-07T14:26:27;25.80;1.70
1381;DHT22;684;48.342;10.096;2023-05-07T14:28:54;25.70;1.70
1381;DHT22;684;48.342;10.096;2023-05-07T14:31:23;25.50;1.00
1381;DHT22;684;48.342;10.096;2023-05-07T14:33:50;25.30;2.30
1381;DHT22;684;48.342;10.096;2023-05-07T14:36:17;25.20;2.50
1381;DHT22;684;48.342;10.096;2023-05-07T14:38:45;25.10;2.50
1381;DHT22;684;48.342;10.096;2023-05-07T14:41:12;25.00;3.10
1381;DHT22;684;48.342;10.096;2023-05-07T14:43:41;25.00;3.60
1381;DHT22;684;48.342;10.096;2023-05-07T14:46:07;24.80;3.00
1381;DHT22;684;48.342;10.096;2023-05-07T14:48:34;24.80;2.90
1381;DHT22;684;48.342;10.096;2023-05-07T14:51:01;24.50;3.50
1381;DHT22;684;48.342;10.096;2023-05-07T14:53:27;24.40;4.20
1381;DHT22;684;48.342;10.096;2023-05-07T14:55:54;24.30;4.80
1381;DHT22;684;48.342;10.096;2023-05-07T14:58:21;24.30;5.50
1381;DHT22;684;48.342;10.096;2023-05-07T15:00:49;24.20;5.90
1381;DHT22;684;48.342;10.096;2023-05-07T15:03:16;24.10;5.90
1381;DHT22;684;48.342;10.096;2023-05-07T15:05:42;24.00;6.10
1381;DHT22;684;48.342;10.096;2023-05-07T15:08:09;23.90;6.10
1381;DHT22;684;48.342;10.096;2023-05-07T15:10:37;23.90;6.30
1381;DHT22;684;48.342;10.096;2023-05-07T15:13:06;23.90;6.30
1381;DHT22;684;48.342;10.096;2023-05-07T15:15:33;23.80;6.30
1381;DHT22;684;48.342;10.096;2023-05-07T15:18:02;23.80;6.50
1381;DHT22;684;48.342;10.096;2023-05-07T15:20:28;23.70;6.60
1381;DHT22;684;48.342;10.096;2023-05-07T15:22:55;23.70;6.80
1381;DHT22;684;48.342;10.096;2023-05-07T15:25:22;23.60;7.10
1381;DHT22;684;48.342;10.096;2023-05-07T15:27:49;23.60;7.50
1381;DHT22;684;48.342;10.096;2023-05-07T15:30:16;23.50;8.10
1381;DHT22;684;48.342;10.096;2023-05-07T15:32:45;23.40;8.70
1381;DHT22;684;48.342;10.096;2023-05-07T15:35:13;23.40;8.80
1381;DHT22;684;48.342;10.096;2023-05-07T15:37:40;23.30;9.00
1381;DHT22;684;48.342;10.096;2023-05-07T15:40:08;23.20;9.20
1381;DHT22;684;48.342;10.096;2023-05-07T15:42:36;23.10;9.50
1381;DHT22;684;48.342;10.096;2023-05-07T15:45:03;23.10;9.60
1381;DHT22;684;48.342;10.096;2023-05-07T15:47:33;23.00;9.70
1381;DHT22;684;48.342;10.096;2023-05-07T15:50:00;23.00;9.70
1381;DHT22;684;48.342;10.096;2023-05-07T15:52:28;22.90;9.90
1381;DHT22;684;48.342;10.096;2023-05-07T15:54:55;22.80;10.10
1381;DHT22;684;48.342;10.096;2023-05-07T15:57:22;22.70;10.20
1381;DHT22;684;48.342;10.096;2023-05-07T15:59:49;22.70;10.20
1381;DHT22;684;48.342;10.096;2023-05-07T16:02:16;22.70;10.30
1381;DHT22;684;48.342;10.096;2023-05-07T16:04:42;22.50;10.80
1381;DHT22;684;48.342;10.096;2023-05-07T16:07:09;22.50;12.30
1381;DHT22;684;48.342;10.096;2023-05-07T16:09:37;22.40;14.70
1381;DHT22;684;48.342;10.096;2023-05-07T16:12:04;22.00;14.70
1381;DHT22;684;48.342;10.096;2023-05-07T16:14:31;21.80;15.60